| time (UTC) | temp F | wind direction | speed knots | gust knots | rain 1hr in | rain 24hr in | rain mn in | humidity % | barometer mb |
| 20260507003736 | 77 | 219 | 0.0 | 0.0 | 0.00 | 0.00 | 0.00 | 67 | 1015.2 |
| 20260507003231 | 77 | 244 | 0.9 | 0.9 | 0.00 | 0.00 | 0.00 | 67 | 1015.0 |
| 20260507002728 | 77 | 238 | 2.6 | 2.6 | 0.00 | 0.00 | 0.00 | 67 | 1014.9 |
| 20260507002224 | 77 | 210 | 0.0 | 0.0 | 0.00 | 0.00 | 0.00 | 67 | 1014.9 |
| 20260507001721 | 77 | 254 | 0.9 | 1.7 | 0.00 | 0.00 | 0.00 | 67 | 1014.7 |
| 20260507001218 | 77 | 162 | 1.7 | 2.6 | 0.00 | 0.00 | 0.00 | 68 | 1014.6 |
| 20260507000714 | 77 | 269 | 0.9 | 0.9 | 0.00 | 0.00 | 0.00 | 67 | 1014.9 |
| 20260507000212 | 78 | 144 | 0.0 | 0.0 | 0.00 | 0.00 | 0.00 | 69 | 1014.5 |
| 20260506235708 | 78 | 168 | 0.9 | 1.7 | 0.00 | 0.00 | 0.00 | 68 | 1014.5 |
| 20260506235203 | 78 | 188 | 0.9 | 0.9 | 0.00 | 0.00 | 0.00 | 68 | 1014.4 |
| 20260506234700 | 78 | 174 | 3.5 | 5.2 | 0.00 | 0.00 | 0.00 | 68 | 1014.5 |
| 20260506234157 | 78 | 198 | 0.0 | 0.0 | 0.00 | 0.00 | 0.00 | 68 | 1014.5 |
| 20260506233654 | 79 | 262 | 0.9 | 0.9 | 0.00 | 0.00 | 0.00 | 67 | 1014.6 |
| 20260506233151 | 79 | 246 | 3.5 | 6.1 | 0.00 | 0.00 | 0.00 | 66 | 1014.5 |
| 20260506232647 | 79 | 215 | 0.0 | 0.0 | 0.00 | 0.00 | 0.00 | 68 | 1014.5 |
| 20260506232142 | 79 | 170 | 0.9 | 0.9 | 0.00 | 0.00 | 0.00 | 68 | 1014.4 |
| 20260506231640 | 79 | 176 | 0.9 | 0.9 | 0.00 | 0.00 | 0.00 | 69 | 1014.5 |
| 20260506231139 | 79 | 252 | 1.7 | 3.5 | 0.00 | 0.00 | 0.00 | 69 | 1014.2 |
| 20260506230635 | 79 | 357 | 0.9 | 0.9 | 0.00 | 0.00 | 0.00 | 69 | 1014.3 |
| 20260506230132 | 80 | 145 | 1.7 | 1.7 | 0.00 | 0.00 | 0.00 | 68 | 1014.3 |
| 20260506225628 | 80 | 252 | 1.7 | 1.7 | 0.00 | 0.00 | 0.00 | 67 | 1014.3 |
| 20260506225125 | 80 | 200 | 0.9 | 1.7 | 0.00 | 0.00 | 0.00 | 66 | 1014.5 |
| 20260506224622 | 80 | 258 | 0.9 | 0.9 | 0.00 | 0.00 | 0.00 | 65 | 1014.5 |
| 20260506224118 | 80 | 217 | 0.9 | 0.9 | 0.00 | 0.00 | 0.00 | 65 | 1014.3 |
| 20260506223614 | 80 | 136 | 1.7 | 1.7 | 0.00 | 0.00 | 0.00 | 64 | 1014.4 |
| 20260506223110 | 80 | 318 | 1.7 | 1.7 | 0.00 | 0.00 | 0.00 | 62 | 1014.5 |
| 20260506222608 | 81 | 121 | 2.6 | 2.6 | 0.00 | 0.00 | 0.00 | 64 | 1014.6 |
| 20260506222104 | 81 | 122 | 1.7 | 1.7 | 0.00 | 0.00 | 0.00 | 63 | 1014.6 |
| 20260506221602 | 82 | 222 | 0.9 | 0.9 | 0.00 | 0.00 | 0.00 | 63 | 1014.4 |
| 20260506221100 | 82 | 177 | 2.6 | 3.5 | 0.00 | 0.00 | 0.00 | 63 | 1014.7 |
| 20260506220555 | 81 | 185 | 1.7 | 1.7 | 0.00 | 0.00 | 0.00 | 63 | 1014.4 |
| 20260506220051 | 81 | 9 | 2.6 | 5.2 | 0.00 | 0.00 | 0.00 | 63 | 1014.3 |
| 20260506215548 | 82 | 252 | 0.9 | 0.9 | 0.00 | 0.00 | 0.00 | 64 | 1014.4 |
| 20260506215043 | 82 | 117 | 1.7 | 1.7 | 0.00 | 0.00 | 0.00 | 63 | 1014.5 |
| 20260506214541 | 82 | 315 | 1.7 | 3.5 | 0.00 | 0.00 | 0.00 | 63 | 1014.3 |
| 20260506214038 | 83 | 153 | 3.5 | 5.2 | 0.00 | 0.00 | 0.00 | 63 | 1014.5 |
| 20260506213536 | 83 | 271 | 2.6 | 2.6 | 0.00 | 0.00 | 0.00 | 62 | 1014.3 |
| 20260506213033 | 83 | 17 | 0.9 | 0.9 | 0.00 | 0.00 | 0.00 | 64 | 1014.4 |
| 20260506212530 | 83 | 189 | 0.9 | 0.9 | 0.00 | 0.00 | 0.00 | 65 | 1014.4 |
| 20260506212024 | 83 | 153 | 1.7 | 1.7 | 0.00 | 0.00 | 0.00 | 64 | 1014.5 |
| 20260506211521 | 84 | 145 | 1.7 | 2.6 | 0.00 | 0.00 | 0.00 | 64 | 1014.4 |
| 20260506211018 | 84 | 166 | 0.9 | 0.9 | 0.00 | 0.00 | 0.00 | 63 | 1014.4 |
| 20260506210515 | 84 | 254 | 0.9 | 0.9 | 0.00 | 0.00 | 0.00 | 63 | 1014.5 |
| 20260506210011 | 84 | 167 | 0.9 | 2.6 | 0.00 | 0.00 | 0.00 | 64 | 1014.5 |
| 20260506205508 | 84 | 309 | 1.7 | 1.7 | 0.00 | 0.00 | 0.00 | 62 | 1014.6 |
| 20260506205003 | 84 | 297 | 2.6 | 5.2 | 0.00 | 0.00 | 0.00 | 62 | 1014.7 |
| 20260506204502 | 84 | 147 | 0.9 | 0.9 | 0.00 | 0.00 | 0.00 | 62 | 1014.5 |
| 20260506203958 | 84 | 145 | 0.9 | 1.7 | 0.00 | 0.00 | 0.00 | 64 | 1014.8 |
| 20260506203456 | 85 | 151 | 3.5 | 3.5 | 0.00 | 0.00 | 0.00 | 63 | 1014.6 |
| 20260506202953 | 85 | 133 | 1.7 | 1.7 | 0.00 | 0.00 | 0.00 | 60 | 1014.6 |
| 20260506202450 | 86 | 192 | 0.9 | 0.9 | 0.00 | 0.00 | 0.00 | 60 | 1014.4 |
| 20260506201946 | 85 | 210 | 1.7 | 1.7 | 0.00 | 0.00 | 0.00 | 59 | 1014.8 |
| 20260506201444 | 86 | 155 | 2.6 | 2.6 | 0.00 | 0.00 | 0.00 | 58 | 1014.7 |
| 20260506200940 | 86 | 183 | 0.0 | 0.0 | 0.00 | 0.00 | 0.00 | 59 | 1014.8 |
| 20260506200437 | 86 | 163 | 0.0 | 0.9 | 0.00 | 0.00 | 0.00 | 60 | 1014.9 |
| 20260506195933 | 86 | 65 | 0.9 | 0.9 | 0.00 | 0.00 | 0.00 | 61 | 1015.0 |
| 20260506195430 | 86 | 193 | 0.9 | 0.9 | 0.00 | 0.00 | 0.00 | 59 | 1015.1 |
| 20260506194927 | 87 | 179 | 1.7 | 1.7 | 0.00 | 0.00 | 0.00 | 57 | 1015.1 |
| 20260506194424 | 86 | 230 | 0.9 | 0.9 | 0.00 | 0.00 | 0.00 | 60 | 1015.1 |
| 20260506193921 | 86 | 90 | 0.9 | 1.7 | 0.00 | 0.00 | 0.00 | 59 | 1015.0 |
| 20260506193418 | 86 | 133 | 1.7 | 1.7 | 0.00 | 0.00 | 0.00 | 60 | 1015.2 |
| 20260506192914 | 87 | 223 | 1.7 | 1.7 | 0.00 | 0.00 | 0.00 | 57 | 1015.4 |
| 20260506192411 | 87 | 106 | 0.9 | 1.7 | 0.00 | 0.00 | 0.00 | 56 | 1015.3 |
| 20260506191908 | 87 | 216 | 0.9 | 0.0 | 0.00 | 0.00 | 0.00 | 56 | 1015.6 |
| 20260506191404 | 87 | 147 | 0.9 | 1.7 | 0.00 | 0.00 | 0.00 | 56 | 1015.4 |
| 20260506190901 | 87 | 190 | 0.9 | 0.9 | 0.00 | 0.00 | 0.00 | 56 | 1015.5 |
| 20260506190357 | 87 | 137 | 1.7 | 2.6 | 0.00 | 0.00 | 0.00 | 56 | 1015.7 |
| 20260506185855 | 87 | 159 | 0.9 | 0.9 | 0.00 | 0.00 | 0.00 | 57 | 1015.5 |
| 20260506185352 | 87 | 276 | 1.7 | 3.5 | 0.00 | 0.00 | 0.00 | 56 | 1016.0 |
| 20260506184849 | 88 | 233 | 0.9 | 0.9 | 0.00 | 0.00 | 0.00 | 55 | 1015.9 |
| 20260506184346 | 88 | 5 | 1.7 | 1.7 | 0.00 | 0.00 | 0.00 | 54 | 1015.9 |
| 20260506183843 | 87 | 185 | 0.9 | 0.9 | 0.00 | 0.00 | 0.00 | 55 | 1016.1 |
| 20260506183338 | 87 | 199 | 0.9 | 1.7 | 0.00 | 0.00 | 0.00 | 56 | 1016.0 |
| 20260506182836 | 87 | 129 | 1.7 | 1.7 | 0.00 | 0.00 | 0.00 | 55 | 1015.9 |
| 20260506182333 | 87 | 218 | 1.7 | 2.6 | 0.00 | 0.00 | 0.00 | 57 | 1016.1 |
| 20260506181831 | 88 | 269 | 0.9 | 1.7 | 0.00 | 0.00 | 0.00 | 54 | 1016.0 |
| 20260506181329 | 88 | 166 | 1.7 | 1.7 | 0.00 | 0.00 | 0.00 | 54 | 1016.2 |
| 20260506180825 | 87 | 148 | 0.9 | 0.9 | 0.00 | 0.00 | 0.00 | 55 | 1016.2 |
| 20260506180321 | 89 | 236 | 1.7 | 1.7 | 0.00 | 0.00 | 0.00 | 52 | 1016.3 |
| 20260506175817 | 88 | 165 | 0.0 | 0.9 | 0.00 | 0.00 | 0.00 | 53 | 1016.2 |
| 20260506175315 | 89 | 198 | 0.9 | 0.9 | 0.00 | 0.00 | 0.00 | 46 | 1016.2 |
| 20260506174812 | 88 | 300 | 1.7 | 1.7 | 0.00 | 0.00 | 0.00 | 48 | 1016.2 |
| 20260506174309 | 88 | 138 | 1.7 | 3.5 | 0.00 | 0.00 | 0.00 | 47 | 1016.4 |
| 20260506173807 | 88 | 162 | 2.6 | 3.5 | 0.00 | 0.00 | 0.00 | 47 | 1016.4 |
| 20260506173303 | 89 | 252 | 0.9 | 1.7 | 0.00 | 0.00 | 0.00 | 47 | 1016.5 |
| 20260506172800 | 89 | 235 | 1.7 | 1.7 | 0.00 | 0.00 | 0.00 | 46 | 1016.8 |
| 20260506172257 | 88 | 187 | 2.6 | 2.6 | 0.00 | 0.00 | 0.00 | 49 | 1016.7 |
| 20260506171754 | 88 | 149 | 1.7 | 2.6 | 0.00 | 0.00 | 0.00 | 48 | 1016.7 |
| 20260506171251 | 87 | 203 | 3.5 | 3.5 | 0.00 | 0.00 | 0.00 | 49 | 1016.8 |
| 20260506170749 | 88 | 222 | 3.5 | 5.2 | 0.00 | 0.00 | 0.00 | 48 | 1016.9 |
| 20260506170245 | 87 | 194 | 1.7 | 2.6 | 0.00 | 0.00 | 0.00 | 49 | 1016.8 |
| 20260506165744 | 87 | 167 | 0.9 | 0.9 | 0.00 | 0.00 | 0.00 | 49 | 1017.0 |
| 20260506165241 | 87 | 238 | 3.5 | 3.5 | 0.00 | 0.00 | 0.00 | 49 | 1017.1 |
| 20260506164738 | 87 | 189 | 0.9 | 0.9 | 0.00 | 0.00 | 0.00 | 49 | 1017.0 |
| 20260506164234 | 86 | 224 | 1.7 | 2.6 | 0.00 | 0.00 | 0.00 | 51 | 1017.0 |
| 20260506163731 | 85 | 195 | 3.5 | 5.2 | 0.00 | 0.00 | 0.00 | 52 | 1017.4 |
| 20260506163226 | 86 | 223 | 3.5 | 5.2 | 0.00 | 0.00 | 0.00 | 50 | 1017.4 |
| 20260506162722 | 85 | 132 | 3.5 | 5.2 | 0.00 | 0.00 | 0.00 | 53 | 1017.3 |
| 20260506162220 | 85 | 237 | 2.6 | 3.5 | 0.00 | 0.00 | 0.00 | 51 | 1017.5 |
| 20260506161717 | 84 | 207 | 0.9 | 1.7 | 0.00 | 0.00 | 0.00 | 53 | 1017.6 |
| 20260506161215 | 84 | 232 | 4.3 | 6.1 | 0.00 | 0.00 | 0.00 | 51 | 1017.4 |
| 20260506160712 | 85 | 238 | 5.2 | 7.0 | 0.00 | 0.00 | 0.00 | 51 | 1017.4 |
| 20260506160208 | 85 | 190 | 2.6 | 2.6 | 0.00 | 0.00 | 0.00 | 52 | 1017.4 |
| 20260506155706 | 85 | 182 | 4.3 | 5.2 | 0.00 | 0.00 | 0.00 | 53 | 1017.6 |
| 20260506155204 | 84 | 203 | 1.7 | 1.7 | 0.00 | 0.00 | 0.00 | 53 | 1017.6 |
| 20260506153305 | 83 | 240 | 3.5 | 5.2 | 0.00 | 0.00 | 0.00 | 55 | 1017.6 |
| 20260506152802 | 82 | 238 | 2.6 | 3.5 | 0.00 | 0.00 | 0.00 | 56 | 1017.4 |
| 20260506152300 | 82 | 240 | 3.5 | 5.2 | 0.00 | 0.00 | 0.00 | 56 | 1017.3 |
| 20260506151759 | 81 | 244 | 3.5 | 3.5 | 0.00 | 0.00 | 0.00 | 56 | 1017.5 |
| 20260506151255 | 81 | 230 | 7.8 | 7.8 | 0.00 | 0.00 | 0.00 | 56 | 1017.3 |
| 20260506150751 | 81 | 208 | 5.2 | 7.0 | 0.00 | 0.00 | 0.00 | 56 | 1017.1 |
| 20260506150249 | 81 | 224 | 4.3 | 7.8 | 0.00 | 0.00 | 0.00 | 56 | 1017.2 |
| 20260506145745 | 81 | 245 | 1.7 | 2.6 | 0.00 | 0.00 | 0.00 | 56 | 1017.4 |
| 20260506145242 | 81 | 243 | 1.7 | 1.7 | 0.00 | 0.00 | 0.00 | 55 | 1017.4 |
| 20260506144739 | 80 | 232 | 4.3 | 5.2 | 0.00 | 0.00 | 0.00 | 58 | 1017.4 |
| 20260506144236 | 80 | 252 | 1.7 | 1.7 | 0.00 | 0.00 | 0.00 | 58 | 1017.3 |
| 20260506143734 | 79 | 267 | 1.7 | 1.7 | 0.00 | 0.00 | 0.00 | 61 | 1017.4 |
| 20260506143231 | 79 | 237 | 3.5 | 3.5 | 0.00 | 0.00 | 0.00 | 60 | 1017.2 |
| 20260506142730 | 79 | 252 | 3.5 | 3.5 | 0.00 | 0.00 | 0.00 | 61 | 1017.3 |
| 20260506142227 | 78 | 252 | 3.5 | 3.5 | 0.00 | 0.00 | 0.00 | 61 | 1017.2 |
| 20260506141725 | 78 | 209 | 4.3 | 7.0 | 0.00 | 0.00 | 0.00 | 62 | 1017.2 |
| 20260506141223 | 78 | 175 | 4.3 | 6.1 | 0.00 | 0.00 | 0.00 | 62 | 1017.0 |
| 20260506140721 | 78 | 243 | 5.2 | 8.7 | 0.00 | 0.00 | 0.00 | 62 | 1017.0 |
| 20260506140217 | 78 | 213 | 1.7 | 2.6 | 0.00 | 0.00 | 0.00 | 63 | 1017.1 |
| 20260506135714 | 77 | 222 | 5.2 | 7.0 | 0.00 | 0.00 | 0.00 | 63 | 1017.2 |
| 20260506135210 | 77 | 248 | 5.2 | 7.8 | 0.00 | 0.00 | 0.00 | 65 | 1017.1 |
| 20260506134707 | 76 | 228 | 3.5 | 3.5 | 0.00 | 0.00 | 0.00 | 66 | 1017.4 |
| 20260506134203 | 76 | 224 | 1.7 | 2.6 | 0.00 | 0.00 | 0.00 | 66 | 1017.2 |
| 20260506133700 | 76 | 204 | 5.2 | 8.7 | 0.00 | 0.00 | 0.00 | 67 | 1017.4 |
| 20260506133157 | 75 | 236 | 4.3 | 5.2 | 0.00 | 0.00 | 0.00 | 69 | 1017.3 |
| 20260506132654 | 75 | 226 | 5.2 | 7.0 | 0.00 | 0.00 | 0.00 | 69 | 1017.2 |
| 20260506132151 | 75 | 220 | 6.1 | 7.0 | 0.00 | 0.00 | 0.00 | 71 | 1017.3 |
| 20260506131649 | 74 | 194 | 2.6 | 3.5 | 0.00 | 0.00 | 0.00 | 72 | 1017.0 |
| 20260506131145 | 74 | 272 | 2.6 | 2.6 | 0.00 | 0.00 | 0.00 | 73 | 1017.0 |
| 20260506130642 | 74 | 165 | 0.9 | 0.9 | 0.00 | 0.00 | 0.00 | 74 | 1017.3 |
| 20260506130139 | 73 | 261 | 2.6 | 3.5 | 0.00 | 0.00 | 0.00 | 74 | 1017.2 |
| 20260506125637 | 73 | 163 | 1.7 | 1.7 | 0.00 | 0.00 | 0.00 | 75 | 1017.1 |
| 20260506125135 | 72 | 218 | 1.7 | 1.7 | 0.00 | 0.00 | 0.00 | 75 | 1017.1 |
| 20260506124633 | 72 | 261 | 0.9 | 0.9 | 0.00 | 0.00 | 0.00 | 75 | 1017.1 |
| 20260506124130 | 71 | 174 | 4.3 | 5.2 | 0.00 | 0.00 | 0.00 | 76 | 1017.0 |
| 20260506123627 | 71 | 233 | 2.6 | 3.5 | 0.00 | 0.00 | 0.00 | 77 | 1017.1 |
| 20260506123126 | 71 | 150 | 1.7 | 2.6 | 0.00 | 0.00 | 0.00 | 77 | 1017.0 |
| 20260506122622 | 70 | 218 | 0.9 | 0.9 | 0.00 | 0.00 | 0.00 | 78 | 1016.9 |
| 20260506122120 | 70 | 236 | 0.9 | 0.9 | 0.00 | 0.00 | 0.00 | 78 | 1017.1 |
| 20260506121618 | 70 | 218 | 2.6 | 3.5 | 0.00 | 0.00 | 0.00 | 78 | 1017.0 |
| 20260506121114 | 69 | 221 | 1.7 | 1.7 | 0.00 | 0.00 | 0.00 | 78 | 1016.8 |
| 20260506120612 | 69 | 236 | 1.7 | 1.7 | 0.00 | 0.00 | 0.00 | 79 | 1016.7 |
| 20260506120109 | 69 | 228 | 1.7 | 1.7 | 0.00 | 0.00 | 0.00 | 79 | 1016.7 |
| 20260506115608 | 69 | 221 | 0.0 | 0.9 | 0.00 | 0.00 | 0.00 | 79 | 1016.8 |
| 20260506115105 | 68 | 217 | 0.9 | 0.9 | 0.00 | 0.00 | 0.00 | 80 | 1016.7 |
| 20260506114602 | 68 | 246 | 0.9 | 0.9 | 0.00 | 0.00 | 0.00 | 81 | 1016.6 |
| 20260506114100 | 68 | 247 | 0.9 | 0.9 | 0.00 | 0.00 | 0.00 | 81 | 1016.6 |
| 20260506113558 | 67 | 247 | 0.9 | 0.9 | 0.00 | 0.00 | 0.00 | 81 | 1016.5 |
| 20260506113055 | 67 | 242 | 1.7 | 1.7 | 0.00 | 0.00 | 0.00 | 81 | 1016.5 |
| 20260506112551 | 66 | 236 | 0.9 | 0.9 | 0.00 | 0.00 | 0.00 | 81 | 1016.3 |
| 20260506112049 | 66 | 234 | 0.9 | 0.9 | 0.00 | 0.00 | 0.00 | 82 | 1016.5 |
| 20260506111547 | 65 | 240 | 0.0 | 0.0 | 0.00 | 0.00 | 0.00 | 84 | 1016.4 |
| 20260506111044 | 65 | 240 | 0.0 | 0.0 | 0.00 | 0.00 | 0.00 | 85 | 1016.4 |
| 20260506110541 | 64 | 240 | 0.0 | 0.0 | 0.00 | 0.00 | 0.00 | 86 | 1016.1 |
| 20260506110039 | 64 | 240 | 0.0 | 0.0 | 0.00 | 0.00 | 0.00 | 86 | 1016.0 |
| 20260506105534 | 64 | 240 | 0.0 | 0.0 | 0.00 | 0.00 | 0.00 | 85 | 1016.1 |
| 20260506105032 | 64 | 240 | 0.0 | 0.0 | 0.00 | 0.00 | 0.00 | 84 | 1016.1 |
| 20260506104530 | 65 | 240 | 0.0 | 0.0 | 0.00 | 0.00 | 0.00 | 82 | 1016.2 |
| 20260506104028 | 65 | 240 | 0.0 | 0.0 | 0.00 | 0.00 | 0.00 | 82 | 1016.2 |
| 20260506103525 | 65 | 240 | 0.0 | 0.0 | 0.00 | 0.00 | 0.00 | 81 | 1016.3 |
| 20260506103021 | 65 | 240 | 0.0 | 0.0 | 0.00 | 0.00 | 0.00 | 80 | 1016.2 |
| 20260506102520 | 65 | 240 | 0.0 | 0.0 | 0.00 | 0.00 | 0.00 | 81 | 1016.2 |
| 20260506102017 | 66 | 240 | 0.0 | 0.0 | 0.00 | 0.00 | 0.00 | 80 | 1015.9 |
| 20260506101513 | 66 | 240 | 0.9 | 0.9 | 0.00 | 0.00 | 0.00 | 79 | 1016.2 |
| 20260506101010 | 66 | 240 | 0.0 | 0.0 | 0.00 | 0.00 | 0.00 | 79 | 1016.0 |
| 20260506100509 | 66 | 239 | 0.0 | 0.0 | 0.00 | 0.00 | 0.00 | 78 | 1016.2 |
| 20260506100007 | 66 | 239 | 0.9 | 0.9 | 0.00 | 0.00 | 0.00 | 78 | 1016.1 |
| 20260506095505 | 66 | 239 | 0.9 | 0.9 | 0.00 | 0.00 | 0.00 | 78 | 1016.1 |
| 20260506095000 | 66 | 239 | 0.9 | 0.9 | 0.00 | 0.00 | 0.00 | 78 | 1016.0 |
| 20260506094459 | 66 | 239 | 0.9 | 0.9 | 0.00 | 0.00 | 0.00 | 78 | 1016.2 |
| 20260506093956 | 66 | 245 | 0.0 | 0.0 | 0.00 | 0.00 | 0.00 | 78 | 1016.0 |
| 20260506093454 | 66 | 244 | 0.0 | 0.0 | 0.00 | 0.00 | 0.00 | 78 | 1016.0 |
| 20260506092952 | 66 | 244 | 0.9 | 0.9 | 0.00 | 0.00 | 0.00 | 79 | 1015.8 |
| 20260506092449 | 66 | 244 | 0.0 | 0.9 | 0.00 | 0.00 | 0.00 | 79 | 1015.9 |
| 20260506091946 | 65 | 244 | 0.0 | 0.9 | 0.00 | 0.00 | 0.00 | 79 | 1015.7 |
| 20260506091444 | 65 | 244 | 0.0 | 0.0 | 0.00 | 0.00 | 0.00 | 81 | 1015.6 |
| 20260506090941 | 65 | 244 | 0.0 | 0.0 | 0.00 | 0.00 | 0.00 | 81 | 1015.7 |
| 20260506090439 | 65 | 244 | 0.0 | 0.0 | 0.00 | 0.00 | 0.00 | 81 | 1015.7 |
| 20260506085935 | 65 | 244 | 0.0 | 0.0 | 0.00 | 0.00 | 0.00 | 79 | 1015.8 |
| 20260506085432 | 66 | 244 | 0.0 | 0.0 | 0.00 | 0.00 | 0.00 | 78 | 1015.7 |
| 20260506084928 | 66 | 244 | 0.0 | 0.0 | 0.00 | 0.00 | 0.00 | 77 | 1015.8 |
| 20260506084426 | 66 | 244 | 0.0 | 0.0 | 0.00 | 0.00 | 0.00 | 76 | 1015.8 |
| 20260506083921 | 66 | 244 | 0.9 | 0.9 | 0.00 | 0.00 | 0.00 | 76 | 1015.9 |
| 20260506083419 | 66 | 244 | 0.9 | 0.9 | 0.00 | 0.00 | 0.00 | 77 | 1016.0 |
| 20260506082916 | 66 | 244 | 0.0 | 0.0 | 0.00 | 0.00 | 0.00 | 76 | 1015.9 |
| 20260506082413 | 67 | 244 | 0.0 | 0.0 | 0.00 | 0.00 | 0.00 | 76 | 1015.7 |
| 20260506081908 | 67 | 244 | 0.0 | 0.0 | 0.00 | 0.00 | 0.00 | 75 | 1015.8 |
| 20260506081408 | 66 | 243 | 0.9 | 0.9 | 0.00 | 0.00 | 0.00 | 75 | 1016.0 |
| 20260506080904 | 66 | 241 | 0.0 | 0.0 | 0.00 | 0.00 | 0.00 | 75 | 1015.8 |
| 20260506080401 | 66 | 241 | 0.9 | 0.9 | 0.00 | 0.00 | 0.00 | 77 | 1015.9 |
| 20260506073345 | 65 | 227 | 0.9 | 0.9 | 0.00 | 0.00 | 0.00 | 78 | 1015.5 |
| 20260506072841 | 64 | 227 | 0.9 | 0.9 | 0.00 | 0.00 | 0.00 | 81 | 1015.5 |
| 20260506072339 | 65 | 221 | 0.0 | 0.0 | 0.00 | 0.00 | 0.00 | 81 | 1015.3 |
| 20260506071837 | 65 | 221 | 0.0 | 0.0 | 0.00 | 0.00 | 0.00 | 79 | 1015.3 |
| 20260506071335 | 65 | 221 | 0.0 | 0.0 | 0.00 | 0.00 | 0.00 | 79 | 1015.6 |
| 20260506070831 | 66 | 221 | 0.0 | 0.0 | 0.00 | 0.00 | 0.00 | 78 | 1015.6 |
| 20260506070328 | 65 | 250 | 0.9 | 0.9 | 0.00 | 0.00 | 0.00 | 79 | 1015.8 |
| 20260506062306 | 63 | 250 | 0.0 | 0.0 | 0.00 | 0.00 | 0.00 | 83 | 1016.2 |
| 20260506061801 | 64 | 250 | 0.0 | 0.0 | 0.00 | 0.00 | 0.00 | 83 | 1016.3 |
| 20260506061258 | 64 | 250 | 0.0 | 0.0 | 0.00 | 0.00 | 0.00 | 82 | 1016.5 |
| 20260506060757 | 64 | 250 | 0.0 | 0.0 | 0.00 | 0.00 | 0.00 | 81 | 1016.3 |
| 20260506060254 | 64 | 250 | 0.0 | 0.0 | 0.00 | 0.00 | 0.00 | 79 | 1016.5 |
| 20260506051226 | 66 | 244 | 0.0 | 0.0 | 0.00 | 0.00 | 0.00 | 75 | 1016.7 |
| 20260506050724 | 66 | 244 | 0.9 | 0.9 | 0.00 | 0.00 | 0.00 | 75 | 1016.7 |
| 20260506050221 | 66 | 244 | 0.9 | 0.9 | 0.00 | 0.00 | 0.00 | 75 | 1016.8 |
| 20260506044712 | 64 | 243 | 0.0 | 0.0 | 0.00 | 0.00 | 0.00 | 80 | 1016.8 |
| 20260506044209 | 64 | 243 | 0.0 | 0.0 | 0.00 | 0.00 | 0.00 | 79 | 1016.8 |
| 20260506043706 | 64 | 243 | 0.0 | 0.0 | 0.00 | 0.00 | 0.00 | 78 | 1016.9 |
| 20260506043204 | 64 | 243 | 0.0 | 0.0 | 0.00 | 0.00 | 0.00 | 77 | 1017.0 |
| 20260506042703 | 64 | 243 | 0.0 | 0.0 | 0.00 | 0.00 | 0.00 | 77 | 1016.8 |
| 20260506042200 | 64 | 243 | 0.0 | 0.0 | 0.00 | 0.00 | 0.00 | 78 | 1017.1 |
| 20260506041659 | 64 | 243 | 0.0 | 0.0 | 0.00 | 0.00 | 0.00 | 78 | 1017.0 |
| 20260506041155 | 64 | 243 | 0.0 | 0.0 | 0.00 | 0.00 | 0.00 | 78 | 1016.9 |
| 20260506040653 | 64 | 243 | 0.0 | 0.0 | 0.00 | 0.00 | 0.00 | 77 | 1016.9 |
| 20260506040149 | 65 | 243 | 0.0 | 0.0 | 0.00 | 0.00 | 0.00 | 77 | 1017.0 |
| 20260506035646 | 65 | 243 | 0.0 | 0.0 | 0.00 | 0.00 | 0.00 | 77 | 1017.2 |
| 20260506035143 | 65 | 243 | 0.0 | 0.0 | 0.00 | 0.00 | 0.00 | 76 | 1017.0 |
| 20260506034640 | 66 | 243 | 0.0 | 0.0 | 0.00 | 0.00 | 0.00 | 74 | 1017.0 |
| 20260506034137 | 66 | 243 | 0.0 | 0.0 | 0.00 | 0.00 | 0.00 | 74 | 1017.0 |
| 20260506033634 | 66 | 243 | 0.0 | 0.0 | 0.00 | 0.00 | 0.00 | 73 | 1017.1 |
| 20260506033131 | 66 | 243 | 0.0 | 0.0 | 0.00 | 0.00 | 0.00 | 73 | 1017.1 |
| 20260506032628 | 67 | 243 | 0.0 | 0.0 | 0.00 | 0.00 | 0.00 | 72 | 1017.0 |
| 20260506032125 | 68 | 243 | 0.0 | 0.0 | 0.00 | 0.00 | 0.00 | 71 | 1017.1 |
| 20260506031622 | 69 | 243 | 0.0 | 0.0 | 0.00 | 0.00 | 0.00 | 69 | 1017.1 |
| 20260506031119 | 69 | 243 | 0.9 | 0.9 | 0.00 | 0.00 | 0.00 | 68 | 1017.1 |
| 20260506030618 | 69 | 243 | 0.0 | 0.0 | 0.00 | 0.00 | 0.00 | 68 | 1017.0 |
| 20260506030114 | 69 | 243 | 0.0 | 0.0 | 0.00 | 0.00 | 0.00 | 67 | 1016.9 |
| 20260506025611 | 69 | 243 | 0.0 | 0.0 | 0.00 | 0.00 | 0.00 | 67 | 1016.9 |
| 20260506025107 | 70 | 243 | 0.0 | 0.0 | 0.00 | 0.00 | 0.00 | 67 | 1016.7 |
| 20260506024605 | 70 | 243 | 0.9 | 0.9 | 0.00 | 0.00 | 0.00 | 67 | 1016.7 |
| 20260506024101 | 70 | 243 | 0.0 | 0.0 | 0.00 | 0.00 | 0.00 | 66 | 1016.8 |
| 20260506023557 | 70 | 243 | 0.0 | 0.0 | 0.00 | 0.00 | 0.00 | 66 | 1016.5 |
| 20260506023055 | 70 | 243 | 0.0 | 0.0 | 0.00 | 0.00 | 0.00 | 65 | 1016.5 |
| 20260506022552 | 70 | 243 | 0.0 | 0.0 | 0.00 | 0.00 | 0.00 | 65 | 1016.6 |
| 20260506022049 | 70 | 243 | 0.0 | 0.0 | 0.00 | 0.00 | 0.00 | 65 | 1016.3 |
| 20260506021547 | 70 | 234 | 0.0 | 0.0 | 0.00 | 0.00 | 0.00 | 65 | 1016.5 |
| 20260506021044 | 70 | 228 | 0.0 | 0.0 | 0.00 | 0.00 | 0.00 | 65 | 1016.4 |
| 20260506020541 | 70 | 228 | 0.0 | 0.0 | 0.00 | 0.00 | 0.00 | 65 | 1016.4 |
| 20260506020038 | 70 | 259 | 0.0 | 0.0 | 0.00 | 0.00 | 0.00 | 65 | 1016.4 |
| 20260506015536 | 71 | 230 | 0.0 | 0.0 | 0.00 | 0.00 | 0.00 | 65 | 1016.4 |
| 20260506015033 | 71 | 200 | 0.0 | 0.0 | 0.00 | 0.00 | 0.00 | 66 | 1016.3 |
| 20260506014530 | 71 | 194 | 0.9 | 1.7 | 0.00 | 0.00 | 0.00 | 65 | 1016.1 |
| 20260506014026 | 71 | 228 | 0.9 | 0.9 | 0.00 | 0.00 | 0.00 | 65 | 1016.2 |
| 20260506013524 | 71 | 225 | 0.9 | 0.9 | 0.00 | 0.00 | 0.00 | 65 | 1016.2 |
| 20260506013021 | 71 | 178 | 0.0 | 0.0 | 0.00 | 0.00 | 0.00 | 64 | 1016.0 |
| 20260506012517 | 71 | 194 | 0.9 | 0.9 | 0.00 | 0.00 | 0.00 | 64 | 1016.0 |
| 20260506012014 | 71 | 215 | 0.0 | 0.0 | 0.00 | 0.00 | 0.00 | 65 | 1016.1 |
| 20260506011511 | 71 | 257 | 0.9 | 0.9 | 0.00 | 0.00 | 0.00 | 64 | 1016.1 |
| 20260506011008 | 71 | 205 | 0.0 | 0.0 | 0.00 | 0.00 | 0.00 | 65 | 1016.0 |
| 20260506010508 | 71 | 249 | 0.0 | 0.9 | 0.00 | 0.00 | 0.00 | 65 | 1015.8 |
| 20260506010003 | 71 | 203 | 0.9 | 0.9 | 0.00 | 0.00 | 0.00 | 66 | 1016.2 |
| 20260506005501 | 71 | 166 | 0.9 | 0.9 | 0.00 | 0.00 | 0.00 | 65 | 1016.1 |
| 20260506004956 | 71 | 208 | 0.0 | 0.0 | 0.00 | 0.00 | 0.00 | 65 | 1016.0 |
| 20260506004454 | 71 | 202 | 0.9 | 0.9 | 0.00 | 0.00 | 0.00 | 65 | 1015.8 |
| 20260506003950 | 71 | 171 | 0.0 | 0.0 | 0.00 | 0.00 | 0.00 | 65 | 1016.0 |